sensor_id;sensor_type;location;lat;lon;timestamp;P1;durP1;ratioP1;P2;durP2;ratioP2
31596;SDS011;18201;50.978;7.034;2023-05-10T00:00:20;41.47;;;19.92;;
31596;SDS011;18201;50.978;7.034;2023-05-10T00:00:53;50.90;;;19.85;;
31596;SDS011;18201;50.978;7.034;2023-05-10T00:01:24;39.70;;;19.35;;
31596;SDS011;18201;50.978;7.034;2023-05-10T00:01:55;38.90;;;19.23;;
31596;SDS011;18201;50.978;7.034;2023-05-10T00:02:27;42.88;;;19.65;;
31596;SDS011;18201;50.978;7.034;2023-05-10T00:02:59;38.63;;;19.27;;
31596;SDS011;18201;50.978;7.034;2023-05-10T00:03:30;47.83;;;20.02;;
31596;SDS011;18201;50.978;7.034;2023-05-10T00:04:01;51.67;;;20.48;;
31596;SDS011;18201;50.978;7.034;2023-05-10T00:04:33;40.40;;;19.10;;
31596;SDS011;18201;50.978;7.034;2023-05-10T00:05:04;36.08;;;18.70;;
31596;SDS011;18201;50.978;7.034;2023-05-10T00:05:35;33.38;;;18.38;;
31596;SDS011;18201;50.978;7.034;2023-05-10T00:06:06;46.30;;;21.58;;
31596;SDS011;18201;50.978;7.034;2023-05-10T00:06:38;36.38;;;19.90;;
31596;SDS011;18201;50.978;7.034;2023-05-10T00:07:09;40.72;;;19.88;;
31596;SDS011;18201;50.978;7.034;2023-05-10T00:07:40;37.67;;;18.95;;
31596;SDS011;18201;50.978;7.034;2023-05-10T00:08:14;34.00;;;18.45;;
31596;SDS011;18201;50.978;7.034;2023-05-10T00:08:45;37.38;;;20.75;;
31596;SDS011;18201;50.978;7.034;2023-05-10T00:09:16;39.50;;;19.90;;
31596;SDS011;18201;50.978;7.034;2023-05-10T00:09:47;42.75;;;20.00;;
31596;SDS011;18201;50.978;7.034;2023-05-10T00:10:18;44.15;;;20.80;;
31596;SDS011;18201;50.978;7.034;2023-05-10T00:10:49;54.53;;;21.90;;
31596;SDS011;18201;50.978;7.034;2023-05-10T00:11:20;37.13;;;19.88;;
31596;SDS011;18201;50.978;7.034;2023-05-10T00:11:52;42.97;;;20.58;;
31596;SDS011;18201;50.978;7.034;2023-05-10T00:12:23;42.13;;;21.10;;
31596;SDS011;18201;50.978;7.034;2023-05-10T00:12:54;32.90;;;18.83;;
31596;SDS011;18201;50.978;7.034;2023-05-10T00:13:26;37.28;;;19.88;;
31596;SDS011;18201;50.978;7.034;2023-05-10T00:13:57;41.63;;;20.45;;
31596;SDS011;18201;50.978;7.034;2023-05-10T00:14:27;34.80;;;18.65;;
31596;SDS011;18201;50.978;7.034;2023-05-10T00:14:59;38.00;;;19.92;;
31596;SDS011;18201;50.978;7.034;2023-05-10T00:15:30;41.63;;;20.45;;
31596;SDS011;18201;50.978;7.034;2023-05-10T00:16:01;43.50;;;21.10;;
31596;SDS011;18201;50.978;7.034;2023-05-10T00:16:33;44.83;;;20.88;;
31596;SDS011;18201;50.978;7.034;2023-05-10T00:17:04;45.55;;;21.08;;
31596;SDS011;18201;50.978;7.034;2023-05-10T00:17:36;40.55;;;21.35;;
31596;SDS011;18201;50.978;7.034;2023-05-10T00:18:07;39.65;;;19.95;;
31596;SDS011;18201;50.978;7.034;2023-05-10T00:18:39;38.10;;;20.33;;
31596;SDS011;18201;50.978;7.034;2023-05-10T00:19:10;45.53;;;21.48;;
31596;SDS011;18201;50.978;7.034;2023-05-10T00:19:41;50.35;;;23.33;;
31596;SDS011;18201;50.978;7.034;2023-05-10T00:20:13;43.33;;;22.40;;
31596;SDS011;18201;50.978;7.034;2023-05-10T00:20:44;49.03;;;22.45;;
31596;SDS011;18201;50.978;7.034;2023-05-10T00:21:16;51.78;;;23.08;;
31596;SDS011;18201;50.978;7.034;2023-05-10T00:21:47;51.83;;;22.85;;
31596;SDS011;18201;50.978;7.034;2023-05-10T00:22:18;51.97;;;22.42;;
31596;SDS011;18201;50.978;7.034;2023-05-10T00:22:49;50.63;;;23.65;;
31596;SDS011;18201;50.978;7.034;2023-05-10T00:23:21;53.70;;;22.67;;
31596;SDS011;18201;50.978;7.034;2023-05-10T00:23:52;49.85;;;22.98;;
31596;SDS011;18201;50.978;7.034;2023-05-10T00:24:23;44.80;;;22.65;;
31596;SDS011;18201;50.978;7.034;2023-05-10T00:24:55;39.70;;;20.77;;
31596;SDS011;18201;50.978;7.034;2023-05-10T00:25:26;41.05;;;22.02;;
31596;SDS011;18201;50.978;7.034;2023-05-10T00:25:58;50.78;;;22.90;;
31596;SDS011;18201;50.978;7.034;2023-05-10T00:26:29;50.05;;;22.95;;
31596;SDS011;18201;50.978;7.034;2023-05-10T00:27:00;48.00;;;23.70;;
31596;SDS011;18201;50.978;7.034;2023-05-10T00:27:33;44.13;;;22.38;;
31596;SDS011;18201;50.978;7.034;2023-05-10T00:28:05;46.50;;;22.45;;
31596;SDS011;18201;50.978;7.034;2023-05-10T00:28:36;44.08;;;22.35;;
31596;SDS011;18201;50.978;7.034;2023-05-10T00:29:07;47.92;;;22.77;;
31596;SDS011;18201;50.978;7.034;2023-05-10T00:29:37;53.08;;;24.00;;
31596;SDS011;18201;50.978;7.034;2023-05-10T00:30:09;40.50;;;22.70;;
31596;SDS011;18201;50.978;7.034;2023-05-10T00:30:41;44.45;;;22.05;;
31596;SDS011;18201;50.978;7.034;2023-05-10T00:31:11;56.88;;;23.92;;
31596;SDS011;18201;50.978;7.034;2023-05-10T00:31:42;56.40;;;23.90;;
31596;SDS011;18201;50.978;7.034;2023-05-10T00:32:14;66.45;;;24.98;;
31596;SDS011;18201;50.978;7.034;2023-05-10T00:32:47;61.00;;;23.27;;
31596;SDS011;18201;50.978;7.034;2023-05-10T00:33:19;48.60;;;21.83;;
31596;SDS011;18201;50.978;7.034;2023-05-10T00:33:51;50.80;;;23.27;;
31596;SDS011;18201;50.978;7.034;2023-05-10T00:34:22;50.60;;;23.10;;
31596;SDS011;18201;50.978;7.034;2023-05-10T00:34:53;53.05;;;23.63;;
31596;SDS011;18201;50.978;7.034;2023-05-10T00:35:25;52.40;;;24.13;;
31596;SDS011;18201;50.978;7.034;2023-05-10T00:35:56;56.78;;;24.70;;
31596;SDS011;18201;50.978;7.034;2023-05-10T00:36:27;54.88;;;24.98;;
31596;SDS011;18201;50.978;7.034;2023-05-10T00:36:58;44.45;;;22.58;;
31596;SDS011;18201;50.978;7.034;2023-05-10T00:37:29;44.53;;;22.83;;
31596;SDS011;18201;50.978;7.034;2023-05-10T00:38:00;50.58;;;23.83;;
31596;SDS011;18201;50.978;7.034;2023-05-10T00:38:32;49.50;;;23.98;;
31596;SDS011;18201;50.978;7.034;2023-05-10T00:39:04;56.95;;;24.67;;
31596;SDS011;18201;50.978;7.034;2023-05-10T00:39:34;51.90;;;23.63;;
31596;SDS011;18201;50.978;7.034;2023-05-10T00:40:08;48.25;;;21.85;;
31596;SDS011;18201;50.978;7.034;2023-05-10T00:40:40;48.50;;;23.63;;
31596;SDS011;18201;50.978;7.034;2023-05-10T00:41:11;57.05;;;25.35;;
31596;SDS011;18201;50.978;7.034;2023-05-10T00:41:43;52.47;;;24.25;;
31596;SDS011;18201;50.978;7.034;2023-05-10T00:42:14;54.60;;;24.48;;
31596;SDS011;18201;50.978;7.034;2023-05-10T00:42:44;61.30;;;25.63;;
31596;SDS011;18201;50.978;7.034;2023-05-10T00:43:15;54.50;;;23.65;;
31596;SDS011;18201;50.978;7.034;2023-05-10T00:43:47;54.45;;;23.52;;
31596;SDS011;18201;50.978;7.034;2023-05-10T00:44:18;48.67;;;24.27;;
31596;SDS011;18201;50.978;7.034;2023-05-10T00:44:49;48.35;;;23.95;;
31596;SDS011;18201;50.978;7.034;2023-05-10T00:45:20;57.63;;;24.58;;
31596;SDS011;18201;50.978;7.034;2023-05-10T00:45:52;47.80;;;24.42;;
31596;SDS011;18201;50.978;7.034;2023-05-10T00:46:23;54.60;;;23.90;;
31596;SDS011;18201;50.978;7.034;2023-05-10T00:46:55;48.53;;;24.35;;
31596;SDS011;18201;50.978;7.034;2023-05-10T00:47:27;47.60;;;24.65;;
31596;SDS011;18201;50.978;7.034;2023-05-10T00:48:00;54.03;;;25.60;;
31596;SDS011;18201;50.978;7.034;2023-05-10T00:48:33;53.70;;;25.70;;
31596;SDS011;18201;50.978;7.034;2023-05-10T00:49:06;54.95;;;24.75;;
31596;SDS011;18201;50.978;7.034;2023-05-10T00:49:37;63.88;;;27.60;;
31596;SDS011;18201;50.978;7.034;2023-05-10T00:50:08;61.97;;;27.73;;
31596;SDS011;18201;50.978;7.034;2023-05-10T00:50:40;60.83;;;28.13;;
31596;SDS011;18201;50.978;7.034;2023-05-10T00:51:12;63.33;;;27.75;;
31596;SDS011;18201;50.978;7.034;2023-05-10T00:51:44;64.22;;;26.77;;
31596;SDS011;18201;50.978;7.034;2023-05-10T00:52:15;60.15;;;27.40;;
31596;SDS011;18201;50.978;7.034;2023-05-10T00:52:48;58.72;;;27.90;;
31596;SDS011;18201;50.978;7.034;2023-05-10T00:53:19;64.97;;;29.60;;
31596;SDS011;18201;50.978;7.034;2023-05-10T00:53:51;53.00;;;27.80;;
31596;SDS011;18201;50.978;7.034;2023-05-10T00:54:23;66.07;;;29.10;;
31596;SDS011;18201;50.978;7.034;2023-05-10T00:54:54;68.70;;;29.13;;
31596;SDS011;18201;50.978;7.034;2023-05-10T00:55:26;70.68;;;30.05;;
31596;SDS011;18201;50.978;7.034;2023-05-10T00:55:59;68.53;;;29.15;;
31596;SDS011;18201;50.978;7.034;2023-05-10T00:56:30;73.43;;;30.13;;
31596;SDS011;18201;50.978;7.034;2023-05-10T00:57:02;67.30;;;28.98;;
31596;SDS011;18201;50.978;7.034;2023-05-10T00:57:34;69.13;;;29.48;;
31596;SDS011;18201;50.978;7.034;2023-05-10T00:58:05;63.83;;;30.27;;
31596;SDS011;18201;50.978;7.034;2023-05-10T00:58:37;66.43;;;29.67;;
31596;SDS011;18201;50.978;7.034;2023-05-10T00:59:08;72.97;;;30.30;;
31596;SDS011;18201;50.978;7.034;2023-05-10T00:59:40;77.00;;;31.50;;
31596;SDS011;18201;50.978;7.034;2023-05-10T01:00:12;79.35;;;31.88;;
31596;SDS011;18201;50.978;7.034;2023-05-10T01:00:47;84.95;;;32.47;;
31596;SDS011;18201;50.978;7.034;2023-05-10T01:01:20;70.45;;;29.73;;
31596;SDS011;18201;50.978;7.034;2023-05-10T01:01:51;65.55;;;29.98;;
31596;SDS011;18201;50.978;7.034;2023-05-10T01:02:23;84.50;;;32.67;;
31596;SDS011;18201;50.978;7.034;2023-05-10T01:02:55;75.30;;;31.55;;
31596;SDS011;18201;50.978;7.034;2023-05-10T01:03:27;74.80;;;30.65;;
31596;SDS011;18201;50.978;7.034;2023-05-10T01:03:59;76.53;;;31.85;;
31596;SDS011;18201;50.978;7.034;2023-05-10T01:04:31;75.22;;;32.28;;
31596;SDS011;18201;50.978;7.034;2023-05-10T01:05:03;71.90;;;29.88;;
31596;SDS011;18201;50.978;7.034;2023-05-10T01:05:35;84.40;;;32.30;;
31596;SDS011;18201;50.978;7.034;2023-05-10T01:06:07;75.93;;;31.42;;
31596;SDS011;18201;50.978;7.034;2023-05-10T01:06:39;87.50;;;31.55;;
31596;SDS011;18201;50.978;7.034;2023-05-10T01:07:10;88.85;;;31.55;;
31596;SDS011;18201;50.978;7.034;2023-05-10T01:07:42;100.68;;;34.08;;
31596;SDS011;18201;50.978;7.034;2023-05-10T01:12:52;79.50;;;31.13;;
31596;SDS011;18201;50.978;7.034;2023-05-10T01:13:28;95.47;;;33.58;;
31596;SDS011;18201;50.978;7.034;2023-05-10T01:14:02;77.07;;;31.35;;
31596;SDS011;18201;50.978;7.034;2023-05-10T01:14:33;76.68;;;32.15;;
31596;SDS011;18201;50.978;7.034;2023-05-10T01:15:06;74.75;;;31.75;;
31596;SDS011;18201;50.978;7.034;2023-05-10T01:15:39;90.60;;;34.72;;
31596;SDS011;18201;50.978;7.034;2023-05-10T01:16:11;80.30;;;32.90;;
31596;SDS011;18201;50.978;7.034;2023-05-10T01:16:43;106.35;;;36.22;;
31596;SDS011;18201;50.978;7.034;2023-05-10T01:17:15;77.80;;;34.58;;
31596;SDS011;18201;50.978;7.034;2023-05-10T01:17:47;81.85;;;31.67;;
31596;SDS011;18201;50.978;7.034;2023-05-10T01:18:19;89.35;;;35.17;;
31596;SDS011;18201;50.978;7.034;2023-05-10T01:18:52;81.47;;;33.95;;
31596;SDS011;18201;50.978;7.034;2023-05-10T01:19:24;88.28;;;33.88;;
31596;SDS011;18201;50.978;7.034;2023-05-10T01:19:57;78.43;;;32.25;;
31596;SDS011;18201;50.978;7.034;2023-05-10T01:20:29;81.32;;;34.08;;
31596;SDS011;18201;50.978;7.034;2023-05-10T01:21:16;79.82;;;33.63;;
31596;SDS011;18201;50.978;7.034;2023-05-10T01:21:57;84.38;;;32.60;;
31596;SDS011;18201;50.978;7.034;2023-05-10T01:22:41;80.78;;;33.70;;
31596;SDS011;18201;50.978;7.034;2023-05-10T01:23:35;83.45;;;32.42;;
31596;SDS011;18201;50.978;7.034;2023-05-10T01:24:38;85.32;;;34.25;;
31596;SDS011;18201;50.978;7.034;2023-05-10T01:25:32;90.00;;;33.80;;
31596;SDS011;18201;50.978;7.034;2023-05-10T01:28:35;82.15;;;32.38;;
31596;SDS011;18201;50.978;7.034;2023-05-10T01:29:25;95.05;;;33.75;;
31596;SDS011;18201;50.978;7.034;2023-05-10T01:30:36;82.95;;;33.00;;
31596;SDS011;18201;50.978;7.034;2023-05-10T01:31:29;88.30;;;33.85;;
31596;SDS011;18201;50.978;7.034;2023-05-10T01:33:01;84.03;;;32.60;;
31596;SDS011;18201;50.978;7.034;2023-05-10T01:33:39;110.53;;;36.42;;
31596;SDS011;18201;50.978;7.034;2023-05-10T01:34:17;106.43;;;37.15;;
31596;SDS011;18201;50.978;7.034;2023-05-10T01:34:53;98.20;;;34.13;;
31596;SDS011;18201;50.978;7.034;2023-05-10T01:35:32;80.75;;;32.72;;
31596;SDS011;18201;50.978;7.034;2023-05-10T01:36:12;86.22;;;34.45;;
31596;SDS011;18201;50.978;7.034;2023-05-10T01:36:51;85.45;;;33.70;;
31596;SDS011;18201;50.978;7.034;2023-05-10T01:37:28;89.80;;;33.58;;
31596;SDS011;18201;50.978;7.034;2023-05-10T01:38:09;78.82;;;33.05;;
31596;SDS011;18201;50.978;7.034;2023-05-10T01:38:59;84.80;;;33.95;;
31596;SDS011;18201;50.978;7.034;2023-05-10T01:39:39;87.18;;;34.30;;
31596;SDS011;18201;50.978;7.034;2023-05-10T01:40:18;89.65;;;33.20;;
31596;SDS011;18201;50.978;7.034;2023-05-10T01:41:00;70.85;;;31.80;;
31596;SDS011;18201;50.978;7.034;2023-05-10T01:41:44;86.18;;;35.08;;
31596;SDS011;18201;50.978;7.034;2023-05-10T01:42:21;78.80;;;33.42;;
31596;SDS011;18201;50.978;7.034;2023-05-10T01:43:00;84.47;;;35.15;;
31596;SDS011;18201;50.978;7.034;2023-05-10T01:43:36;87.70;;;34.75;;
31596;SDS011;18201;50.978;7.034;2023-05-10T01:44:16;82.70;;;34.30;;
31596;SDS011;18201;50.978;7.034;2023-05-10T01:44:53;74.65;;;32.28;;
31596;SDS011;18201;50.978;7.034;2023-05-10T01:45:29;82.80;;;34.38;;
31596;SDS011;18201;50.978;7.034;2023-05-10T01:46:03;89.43;;;35.95;;
31596;SDS011;18201;50.978;7.034;2023-05-10T01:46:40;108.13;;;37.85;;
31596;SDS011;18201;50.978;7.034;2023-05-10T01:47:12;82.97;;;32.20;;
31596;SDS011;18201;50.978;7.034;2023-05-10T01:47:50;90.97;;;33.65;;
31596;SDS011;18201;50.978;7.034;2023-05-10T01:48:28;92.13;;;34.55;;
31596;SDS011;18201;50.978;7.034;2023-05-10T01:49:01;93.63;;;36.78;;
31596;SDS011;18201;50.978;7.034;2023-05-10T01:49:39;84.05;;;34.30;;
31596;SDS011;18201;50.978;7.034;2023-05-10T01:50:14;81.43;;;34.00;;
31596;SDS011;18201;50.978;7.034;2023-05-10T01:50:48;80.07;;;33.35;;
31596;SDS011;18201;50.978;7.034;2023-05-10T01:51:22;77.53;;;33.40;;
31596;SDS011;18201;50.978;7.034;2023-05-10T01:51:57;80.50;;;33.30;;
31596;SDS011;18201;50.978;7.034;2023-05-10T01:52:31;74.82;;;32.97;;
31596;SDS011;18201;50.978;7.034;2023-05-10T01:53:08;77.93;;;34.15;;
31596;SDS011;18201;50.978;7.034;2023-05-10T01:53:41;84.53;;;34.65;;
31596;SDS011;18201;50.978;7.034;2023-05-10T01:54:14;88.18;;;33.92;;
31596;SDS011;18201;50.978;7.034;2023-05-10T01:54:49;79.90;;;32.42;;
31596;SDS011;18201;50.978;7.034;2023-05-10T01:55:24;83.00;;;33.60;;
31596;SDS011;18201;50.978;7.034;2023-05-10T01:55:58;83.13;;;33.63;;
31596;SDS011;18201;50.978;7.034;2023-05-10T01:56:32;94.07;;;35.05;;
31596;SDS011;18201;50.978;7.034;2023-05-10T01:57:06;83.07;;;32.85;;
31596;SDS011;18201;50.978;7.034;2023-05-10T01:57:40;78.70;;;33.08;;
31596;SDS011;18201;50.978;7.034;2023-05-10T01:58:15;79.32;;;31.92;;
31596;SDS011;18201;50.978;7.034;2023-05-10T01:58:50;61.90;;;28.92;;
31596;SDS011;18201;50.978;7.034;2023-05-10T01:59:23;51.03;;;25.48;;
31596;SDS011;18201;50.978;7.034;2023-05-10T02:00:01;63.83;;;26.65;;
31596;SDS011;18201;50.978;7.034;2023-05-10T02:00:33;47.42;;;23.73;;
31596;SDS011;18201;50.978;7.034;2023-05-10T02:01:05;45.60;;;23.90;;
31596;SDS011;18201;50.978;7.034;2023-05-10T02:01:38;45.42;;;22.98;;
31596;SDS011;18201;50.978;7.034;2023-05-10T02:02:10;40.85;;;20.42;;
31596;SDS011;18201;50.978;7.034;2023-05-10T02:02:44;39.47;;;21.25;;
31596;SDS011;18201;50.978;7.034;2023-05-10T02:03:20;41.53;;;21.35;;
31596;SDS011;18201;50.978;7.034;2023-05-10T02:03:53;46.95;;;21.30;;
31596;SDS011;18201;50.978;7.034;2023-05-10T02:04:27;43.95;;;20.88;;
31596;SDS011;18201;50.978;7.034;2023-05-10T02:04:59;31.70;;;18.85;;
31596;SDS011;18201;50.978;7.034;2023-05-10T02:05:33;35.95;;;18.60;;
31596;SDS011;18201;50.978;7.034;2023-05-10T02:06:05;37.58;;;19.25;;
31596;SDS011;18201;50.978;7.034;2023-05-10T02:06:38;40.28;;;19.58;;
31596;SDS011;18201;50.978;7.034;2023-05-10T02:07:12;42.55;;;19.63;;
31596;SDS011;18201;50.978;7.034;2023-05-10T02:07:44;34.03;;;17.52;;
31596;SDS011;18201;50.978;7.034;2023-05-10T02:08:15;38.47;;;18.65;;
31596;SDS011;18201;50.978;7.034;2023-05-10T02:08:50;37.38;;;18.27;;
31596;SDS011;18201;50.978;7.034;2023-05-10T02:09:23;28.45;;;16.02;;
31596;SDS011;18201;50.978;7.034;2023-05-10T02:09:55;27.50;;;15.32;;
31596;SDS011;18201;50.978;7.034;2023-05-10T02:10:29;34.65;;;16.30;;
31596;SDS011;18201;50.978;7.034;2023-05-10T02:11:01;28.35;;;15.02;;
31596;SDS011;18201;50.978;7.034;2023-05-10T02:11:33;34.53;;;17.05;;
31596;SDS011;18201;50.978;7.034;2023-05-10T02:12:08;24.25;;;14.10;;
31596;SDS011;18201;50.978;7.034;2023-05-10T02:12:41;23.50;;;15.00;;
31596;SDS011;18201;50.978;7.034;2023-05-10T02:13:13;30.67;;;15.52;;
31596;SDS011;18201;50.978;7.034;2023-05-10T02:13:46;26.75;;;14.60;;
31596;SDS011;18201;50.978;7.034;2023-05-10T02:14:19;25.75;;;14.55;;
31596;SDS011;18201;50.978;7.034;2023-05-10T02:14:50;28.02;;;14.20;;
31596;SDS011;18201;50.978;7.034;2023-05-10T02:15:24;29.13;;;14.43;;
31596;SDS011;18201;50.978;7.034;2023-05-10T02:15:56;24.90;;;14.43;;
31596;SDS011;18201;50.978;7.034;2023-05-10T02:16:29;21.92;;;13.70;;
31596;SDS011;18201;50.978;7.034;2023-05-10T02:17:02;24.13;;;14.23;;
31596;SDS011;18201;50.978;7.034;2023-05-10T02:17:34;29.77;;;14.77;;
31596;SDS011;18201;50.978;7.034;2023-05-10T02:18:07;31.50;;;15.05;;
31596;SDS011;18201;50.978;7.034;2023-05-10T02:18:41;22.00;;;13.45;;
31596;SDS011;18201;50.978;7.034;2023-05-10T02:19:13;27.33;;;14.68;;
31596;SDS011;18201;50.978;7.034;2023-05-10T02:19:46;25.98;;;13.38;;
31596;SDS011;18201;50.978;7.034;2023-05-10T02:20:19;27.55;;;13.25;;
31596;SDS011;18201;50.978;7.034;2023-05-10T02:20:52;29.75;;;13.60;;
31596;SDS011;18201;50.978;7.034;2023-05-10T02:21:25;21.55;;;13.13;;
31596;SDS011;18201;50.978;7.034;2023-05-10T02:21:58;21.60;;;12.70;;
31596;SDS011;18201;50.978;7.034;2023-05-10T02:22:30;22.27;;;13.05;;
31596;SDS011;18201;50.978;7.034;2023-05-10T02:23:03;21.90;;;11.85;;
31596;SDS011;18201;50.978;7.034;2023-05-10T02:23:36;21.83;;;13.50;;
31596;SDS011;18201;50.978;7.034;2023-05-10T02:24:07;25.15;;;12.70;;
31596;SDS011;18201;50.978;7.034;2023-05-10T02:24:40;21.77;;;13.05;;
31596;SDS011;18201;50.978;7.034;2023-05-10T02:25:13;33.03;;;14.93;;
31596;SDS011;18201;50.978;7.034;2023-05-10T02:25:45;20.95;;;12.40;;
31596;SDS011;18201;50.978;7.034;2023-05-10T02:26:18;24.77;;;13.10;;
31596;SDS011;18201;50.978;7.034;2023-05-10T02:26:53;26.85;;;13.60;;
31596;SDS011;18201;50.978;7.034;2023-05-10T02:27:27;19.95;;;13.02;;
31596;SDS011;18201;50.978;7.034;2023-05-10T02:27:59;19.17;;;11.25;;
31596;SDS011;18201;50.978;7.034;2023-05-10T02:28:33;18.90;;;11.80;;
31596;SDS011;18201;50.978;7.034;2023-05-10T02:29:07;21.20;;;12.55;;
31596;SDS011;18201;50.978;7.034;2023-05-10T02:29:39;22.27;;;12.98;;
31596;SDS011;18201;50.978;7.034;2023-05-10T02:30:11;25.38;;;13.05;;
31596;SDS011;18201;50.978;7.034;2023-05-10T02:30:43;24.75;;;12.82;;
31596;SDS011;18201;50.978;7.034;2023-05-10T02:31:15;25.10;;;12.70;;
31596;SDS011;18201;50.978;7.034;2023-05-10T02:31:47;23.35;;;13.40;;
31596;SDS011;18201;50.978;7.034;2023-05-10T02:32:20;23.35;;;12.73;;
31596;SDS011;18201;50.978;7.034;2023-05-10T02:32:52;25.00;;;13.40;;
31596;SDS011;18201;50.978;7.034;2023-05-10T02:33:24;24.13;;;12.52;;
31596;SDS011;18201;50.978;7.034;2023-05-10T02:33:58;21.17;;;11.73;;
31596;SDS011;18201;50.978;7.034;2023-05-10T02:34:31;26.52;;;13.07;;
31596;SDS011;18201;50.978;7.034;2023-05-10T02:35:03;26.73;;;13.32;;
31596;SDS011;18201;50.978;7.034;2023-05-10T02:35:37;23.77;;;14.18;;
31596;SDS011;18201;50.978;7.034;2023-05-10T02:36:09;23.65;;;13.20;;
31596;SDS011;18201;50.978;7.034;2023-05-10T02:36:40;26.02;;;13.80;;
31596;SDS011;18201;50.978;7.034;2023-05-10T02:37:14;31.52;;;13.70;;
31596;SDS011;18201;50.978;7.034;2023-05-10T02:37:46;29.83;;;14.23;;
31596;SDS011;18201;50.978;7.034;2023-05-10T02:38:18;24.10;;;13.13;;
31596;SDS011;18201;50.978;7.034;2023-05-10T02:38:52;21.50;;;13.27;;
31596;SDS011;18201;50.978;7.034;2023-05-10T02:39:23;25.55;;;12.60;;
31596;SDS011;18201;50.978;7.034;2023-05-10T02:39:58;23.88;;;14.02;;
31596;SDS011;18201;50.978;7.034;2023-05-10T02:40:29;26.90;;;13.60;;
31596;SDS011;18201;50.978;7.034;2023-05-10T02:41:03;23.65;;;13.15;;
31596;SDS011;18201;50.978;7.034;2023-05-10T02:41:36;26.73;;;12.80;;
31596;SDS011;18201;50.978;7.034;2023-05-10T02:42:08;23.98;;;12.75;;
31596;SDS011;18201;50.978;7.034;2023-05-10T02:42:41;23.65;;;13.10;;
31596;SDS011;18201;50.978;7.034;2023-05-10T02:43:14;24.67;;;13.63;;
31596;SDS011;18201;50.978;7.034;2023-05-10T02:43:47;24.45;;;13.30;;
31596;SDS011;18201;50.978;7.034;2023-05-10T02:44:21;26.77;;;14.60;;
31596;SDS011;18201;50.978;7.034;2023-05-10T02:44:54;22.85;;;12.90;;
31596;SDS011;18201;50.978;7.034;2023-05-10T02:45:30;26.67;;;13.10;;
31596;SDS011;18201;50.978;7.034;2023-05-10T02:46:03;29.50;;;13.90;;
31596;SDS011;18201;50.978;7.034;2023-05-10T02:46:34;28.65;;;14.15;;
31596;SDS011;18201;50.978;7.034;2023-05-10T02:47:05;28.45;;;13.68;;
31596;SDS011;18201;50.978;7.034;2023-05-10T02:47:37;25.90;;;13.30;;
31596;SDS011;18201;50.978;7.034;2023-05-10T02:48:08;29.02;;;13.35;;
31596;SDS011;18201;50.978;7.034;2023-05-10T02:48:39;23.02;;;12.80;;
31596;SDS011;18201;50.978;7.034;2023-05-10T02:49:12;28.38;;;14.07;;
31596;SDS011;18201;50.978;7.034;2023-05-10T02:49:45;31.75;;;15.27;;
31596;SDS011;18201;50.978;7.034;2023-05-10T02:50:16;23.40;;;13.20;;
31596;SDS011;18201;50.978;7.034;2023-05-10T02:50:47;30.40;;;13.98;;
31596;SDS011;18201;50.978;7.034;2023-05-10T02:51:23;23.65;;;13.20;;
31596;SDS011;18201;50.978;7.034;2023-05-10T02:52:00;23.92;;;13.27;;
31596;SDS011;18201;50.978;7.034;2023-05-10T02:52:36;28.00;;;13.25;;
31596;SDS011;18201;50.978;7.034;2023-05-10T02:53:10;19.60;;;12.07;;
31596;SDS011;18201;50.978;7.034;2023-05-10T02:53:46;23.60;;;12.82;;
31596;SDS011;18201;50.978;7.034;2023-05-10T02:54:20;21.55;;;12.93;;
31596;SDS011;18201;50.978;7.034;2023-05-10T02:54:55;23.63;;;13.32;;
31596;SDS011;18201;50.978;7.034;2023-05-10T02:55:31;23.65;;;12.60;;
31596;SDS011;18201;50.978;7.034;2023-05-10T02:56:10;21.15;;;13.10;;
31596;SDS011;18201;50.978;7.034;2023-05-10T02:56:46;34.33;;;14.48;;
31596;SDS011;18201;50.978;7.034;2023-05-10T02:57:22;24.55;;;13.18;;
31596;SDS011;18201;50.978;7.034;2023-05-10T02:57:58;22.17;;;13.32;;
31596;SDS011;18201;50.978;7.034;2023-05-10T02:58:30;23.90;;;12.70;;
31596;SDS011;18201;50.978;7.034;2023-05-10T02:59:01;31.05;;;13.95;;
31596;SDS011;18201;50.978;7.034;2023-05-10T02:59:33;27.48;;;13.98;;
31596;SDS011;18201;50.978;7.034;2023-05-10T03:00:05;25.02;;;12.05;;
31596;SDS011;18201;50.978;7.034;2023-05-10T03:00:37;28.05;;;13.52;;
31596;SDS011;18201;50.978;7.034;2023-05-10T03:01:09;24.25;;;12.45;;
31596;SDS011;18201;50.978;7.034;2023-05-10T03:01:40;22.17;;;11.85;;
31596;SDS011;18201;50.978;7.034;2023-05-10T03:02:11;25.23;;;13.05;;
31596;SDS011;18201;50.978;7.034;2023-05-10T03:02:44;30.02;;;14.27;;
31596;SDS011;18201;50.978;7.034;2023-05-10T03:03:14;25.25;;;13.13;;
31596;SDS011;18201;50.978;7.034;2023-05-10T03:03:45;24.92;;;13.30;;
31596;SDS011;18201;50.978;7.034;2023-05-10T03:04:19;26.80;;;13.65;;
31596;SDS011;18201;50.978;7.034;2023-05-10T03:04:49;27.10;;;13.98;;
31596;SDS011;18201;50.978;7.034;2023-05-10T03:05:21;20.05;;;11.57;;
31596;SDS011;18201;50.978;7.034;2023-05-10T03:05:53;23.75;;;12.82;;
31596;SDS011;18201;50.978;7.034;2023-05-10T03:06:25;26.58;;;12.65;;
31596;SDS011;18201;50.978;7.034;2023-05-10T03:06:56;23.98;;;12.60;;
31596;SDS011;18201;50.978;7.034;2023-05-10T03:07:29;27.27;;;13.18;;
31596;SDS011;18201;50.978;7.034;2023-05-10T03:07:59;22.65;;;12.52;;
31596;SDS011;18201;50.978;7.034;2023-05-10T03:08:34;26.05;;;12.63;;
31596;SDS011;18201;50.978;7.034;2023-05-10T03:09:06;27.50;;;13.00;;
31596;SDS011;18201;50.978;7.034;2023-05-10T03:09:39;25.98;;;12.90;;
31596;SDS011;18201;50.978;7.034;2023-05-10T03:10:11;28.85;;;13.98;;
31596;SDS011;18201;50.978;7.034;2023-05-10T03:10:46;25.60;;;13.45;;
31596;SDS011;18201;50.978;7.034;2023-05-10T03:11:28;21.85;;;11.85;;
31596;SDS011;18201;50.978;7.034;2023-05-10T03:12:11;23.95;;;12.30;;
31596;SDS011;18201;50.978;7.034;2023-05-10T03:12:52;26.85;;;13.18;;
31596;SDS011;18201;50.978;7.034;2023-05-10T03:13:36;26.13;;;13.85;;
31596;SDS011;18201;50.978;7.034;2023-05-10T03:14:16;24.30;;;12.13;;
31596;SDS011;18201;50.978;7.034;2023-05-10T03:14:57;24.30;;;13.70;;
31596;SDS011;18201;50.978;7.034;2023-05-10T03:15:37;19.90;;;12.38;;
31596;SDS011;18201;50.978;7.034;2023-05-10T03:16:14;36.83;;;14.40;;
31596;SDS011;18201;50.978;7.034;2023-05-10T03:16:52;25.38;;;14.20;;
31596;SDS011;18201;50.978;7.034;2023-05-10T03:17:29;23.40;;;12.98;;
31596;SDS011;18201;50.978;7.034;2023-05-10T03:18:06;25.67;;;13.23;;
31596;SDS011;18201;50.978;7.034;2023-05-10T03:18:41;25.92;;;14.23;;
31596;SDS011;18201;50.978;7.034;2023-05-10T03:19:16;28.80;;;15.00;;
31596;SDS011;18201;50.978;7.034;2023-05-10T03:19:54;26.90;;;15.60;;
31596;SDS011;18201;50.978;7.034;2023-05-10T03:20:29;24.52;;;14.25;;
31596;SDS011;18201;50.978;7.034;2023-05-10T03:21:05;25.85;;;14.98;;
31596;SDS011;18201;50.978;7.034;2023-05-10T03:21:43;34.78;;;15.05;;
31596;SDS011;18201;50.978;7.034;2023-05-10T03:22:21;26.35;;;14.98;;
31596;SDS011;18201;50.978;7.034;2023-05-10T03:22:55;33.92;;;15.57;;
31596;SDS011;18201;50.978;7.034;2023-05-10T03:23:35;28.80;;;14.85;;
31596;SDS011;18201;50.978;7.034;2023-05-10T03:24:11;28.92;;;15.75;;
31596;SDS011;18201;50.978;7.034;2023-05-10T03:24:45;32.45;;;15.70;;
31596;SDS011;18201;50.978;7.034;2023-05-10T03:25:19;27.60;;;14.93;;